Time;durP1;ratioP1;P1;durP2;ratioP2;P2;SDS_P1;SDS_P2;PMS_P1;PMS_P2;Temp;Humidity;BMP_temperature;BMP_pressure;BME280_temperature;BME280_humidity;BME280_pressure;Samples;Min_cycle;Max_cycle;Signal;HPM_P1;HPM_P2
2021/10/09 00:01:06;;;;;;;;;19.00;17.33;;;;;12.53;73.29;102216.34;4978562;28;46230;-70
2021/10/09 00:03:31;;;;;;;;;17.00;15.67;;;;;12.53;73.43;102217.22;4978671;28;45303;-71
2021/10/09 00:05:57;;;;;;;;;20.00;17.00;;;;;12.51;73.34;102223.50;4979953;28;45437;-70
2021/10/09 00:08:22;;;;;;;;;17.00;16.00;;;;;12.49;73.30;102218.34;4987398;28;45428;-69
2021/10/09 00:10:47;;;;;;;;;21.00;17.00;;;;;12.47;73.32;102216.72;4959181;28;47986;-70
2021/10/09 00:13:13;;;;;;;;;19.33;17.33;;;;;12.47;73.49;102214.94;4981432;28;45527;-70
2021/10/09 00:15:39;;;;;;;;;15.67;13.00;;;;;12.46;73.81;102207.94;4982436;28;45677;-69
2021/10/09 00:18:04;;;;;;;;;16.00;14.33;;;;;12.46;73.63;102213.22;4982524;28;45475;-70
2021/10/09 00:20:32;;;;;;;;;17.00;12.67;;;;;12.45;73.69;102213.31;4980360;28;46169;-71
2021/10/09 00:22:58;;;;;;;;;20.00;18.67;;;;;12.43;73.60;102210.78;4976488;28;45549;-70
2021/10/09 00:25:24;;;;;;;;;19.33;16.00;;;;;12.42;73.29;102205.59;4977381;28;45402;-70
2021/10/09 00:27:50;;;;;;;;;16.00;13.33;;;;;12.41;73.69;102204.75;4977637;28;45529;-71
2021/10/09 00:30:16;;;;;;;;;20.00;16.33;;;;;12.40;74.13;102205.66;4964043;28;47665;-70
2021/10/09 00:32:41;;;;;;;;;17.67;17.33;;;;;12.38;73.68;102211.03;4981140;28;45445;-70
2021/10/09 00:35:07;;;;;;;;;16.67;14.00;;;;;12.37;73.96;102206.69;4961415;28;45328;-70
2021/10/09 00:37:33;;;;;;;;;17.00;16.00;;;;;12.36;73.83;102205.03;4982512;28;45461;-70
2021/10/09 00:39:58;;;;;;;;;20.67;17.00;;;;;12.34;73.80;102206.06;4973018;28;46182;-68
2021/10/09 00:42:24;;;;;;;;;17.67;16.67;;;;;12.32;73.79;102206.13;4987346;28;45404;-70
2021/10/09 00:44:49;;;;;;;;;17.33;16.00;;;;;12.32;74.03;102207.91;4979792;28;45672;-70
2021/10/09 00:47:16;;;;;;;;;20.33;16.33;;;;;12.29;73.97;102202.84;4992682;28;45506;-70
2021/10/09 00:49:42;;;;;;;;;18.67;17.67;;;;;12.27;73.82;102209.97;4981586;28;46013;-71
2021/10/09 00:52:10;;;;;;;;;21.00;18.33;;;;;12.27;74.03;102210.81;4981243;28;45409;-69
2021/10/09 00:54:41;;;;;;;;;23.00;18.00;;;;;12.24;74.21;102211.00;4963279;28;45537;-70
2021/10/09 00:57:08;;;;;;;;;21.67;16.67;;;;;12.21;74.00;102212.00;4981434;28;47155;-71
2021/10/09 00:59:36;;;;;;;;;17.33;16.00;;;;;12.17;74.14;102207.03;4979214;28;46107;-70
2021/10/09 01:02:02;;;;;;;;;22.33;18.33;;;;;12.17;74.34;102210.50;4970487;28;45562;-70
2021/10/09 01:04:29;;;;;;;;;15.67;14.67;;;;;12.17;74.09;102205.22;4981543;28;45371;-70
2021/10/09 01:06:55;;;;;;;;;19.67;16.67;;;;;12.17;74.34;102209.66;4982659;28;45469;-69
2021/10/09 01:09:20;;;;;;;;;21.00;16.33;;;;;12.15;74.36;102208.88;4977776;28;45488;-69
2021/10/09 01:11:46;;;;;;;;;20.67;18.33;;;;;12.15;74.41;102206.25;4976589;28;45484;-71
2021/10/09 01:14:11;;;;;;;;;19.00;18.00;;;;;12.10;74.58;102198.59;4981136;28;45409;-70
2021/10/09 01:16:37;;;;;;;;;20.00;16.67;;;;;12.10;74.46;102201.25;4992591;28;45448;-70
2021/10/09 01:19:02;;;;;;;;;19.33;17.67;;;;;12.04;74.44;102194.53;4981873;28;46567;-70
2021/10/09 01:21:41;;;;;;;;;15.00;14.67;;;;;12.04;74.51;102199.81;4981000;28;45292;-70
2021/10/09 01:24:06;;;;;;;;;19.00;16.00;;;;;12.02;74.75;102201.69;4962292;28;45553;-70
2021/10/09 01:26:32;;;;;;;;;15.67;12.67;;;;;12.01;74.68;102193.88;4966430;28;45514;-70
2021/10/09 01:28:57;;;;;;;;;24.33;18.00;;;;;12.00;74.81;102197.44;4977522;28;48234;-70
2021/10/09 01:31:23;;;;;;;;;16.67;16.67;;;;;12.02;74.68;102200.84;4979574;28;45390;-71
2021/10/09 01:33:48;;;;;;;;;24.67;17.00;;;;;12.01;74.83;102194.72;4973789;28;46477;-70
2021/10/09 01:36:14;;;;;;;;;20.00;17.00;;;;;12.00;74.75;102198.28;4977507;28;45428;-70
2021/10/09 01:38:40;;;;;;;;;23.00;19.00;;;;;11.99;74.91;102195.75;4979274;28;45522;-70
2021/10/09 01:41:07;;;;;;;;;18.67;16.33;;;;;11.97;74.95;102201.09;4976675;28;45414;-70
2021/10/09 01:43:33;;;;;;;;;21.00;17.33;;;;;11.95;74.52;102200.34;4963608;28;45336;-69
2021/10/09 01:45:58;;;;;;;;;20.00;15.33;;;;;11.92;75.08;102200.47;4980715;28;45359;-69
2021/10/09 01:48:38;;;;;;;;;23.67;19.00;;;;;11.88;74.72;102196.31;4980985;28;45216;-70
2021/10/09 01:51:05;;;;;;;;;23.67;17.67;;;;;11.86;74.87;102190.31;4976535;28;45460;-70
2021/10/09 01:53:30;;;;;;;;;18.33;16.33;;;;;11.85;75.16;102197.34;4978433;28;45417;-69
2021/10/09 01:55:56;;;;;;;;;24.33;21.67;;;;;11.84;75.30;102194.78;4978694;28;45617;-69
2021/10/09 01:58:21;;;;;;;;;21.67;16.00;;;;;11.83;74.99;102193.09;4980641;28;47002;-69
2021/10/09 02:00:47;;;;;;;;;20.67;17.00;;;;;11.79;75.50;102188.94;4980239;28;45492;-69
2021/10/09 02:03:15;;;;;;;;;21.33;19.33;;;;;11.77;75.13;102185.56;4980759;28;45423;-68
2021/10/09 02:05:40;;;;;;;;;17.67;16.00;;;;;11.75;75.12;102182.97;4980681;28;45472;-71
2021/10/09 02:08:06;;;;;;;;;23.00;16.00;;;;;11.77;75.18;102194.28;4980514;28;45389;-70
2021/10/09 02:10:32;;;;;;;;;18.33;16.00;;;;;11.72;75.48;102177.91;4997464;28;45481;-70
2021/10/09 02:13:01;;;;;;;;;16.67;15.33;;;;;11.73;74.88;102188.34;4985988;28;45502;-70
2021/10/09 02:15:40;;;;;;;;;21.00;19.00;;;;;11.73;75.23;102185.72;4977129;28;45465;-69
2021/10/09 02:24:13;;;;;;;;;20.00;17.67;;;;;11.69;74.87;102181.56;4977265;28;45343;-71
2021/10/09 02:26:20;;;;;;;;;24.00;20.67;;;;;11.67;75.55;102185.22;4979148;28;45499;-71
2021/10/09 02:28:45;;;;;;;;;20.67;17.00;;;;;11.65;74.80;102177.41;4982551;28;46427;-69
2021/10/09 02:31:10;;;;;;;;;19.67;17.67;;;;;11.67;75.18;102182.56;4983879;28;45351;-70
2021/10/09 02:33:36;;;;;;;;;21.33;18.00;;;;;11.67;75.13;102183.41;4981505;28;45291;-71
2021/10/09 02:36:01;;;;;;;;;19.00;18.00;;;;;11.67;74.86;102191.31;4980884;28;45518;-71
2021/10/09 02:38:27;;;;;;;;;29.00;21.67;;;;;11.66;74.98;102181.75;4978982;28;46093;-70
2021/10/09 02:40:52;;;;;;;;;20.67;18.33;;;;;11.64;75.20;102180.97;4978559;28;45882;-71
2021/10/09 02:43:18;;;;;;;;;18.33;18.33;;;;;11.60;75.27;102183.84;4981388;28;45411;-70
2021/10/09 02:45:43;;;;;;;;;25.33;19.67;;;;;11.57;75.15;102184.84;4980543;28;45555;-70
2021/10/09 02:48:09;;;;;;;;;23.33;19.00;;;;;11.56;75.67;102177.91;4979782;28;46241;-69
2021/10/09 02:50:35;;;;;;;;;20.00;18.00;;;;;11.56;76.04;102184.03;4977811;28;45522;-69
2021/10/09 02:53:01;;;;;;;;;18.67;18.67;;;;;11.54;75.48;102177.13;4977098;28;45545;-69
2021/10/09 02:55:26;;;;;;;;;18.67;16.67;;;;;11.56;75.11;102180.56;4980669;28;45410;-70
2021/10/09 02:57:52;;;;;;;;;25.33;18.67;;;;;11.58;75.24;102176.03;4979658;28;47243;-70
2021/10/09 03:00:20;;;;;;;;;25.67;19.00;;;;;11.58;75.42;102181.28;4979881;28;45619;-70
2021/10/09 03:02:46;;;;;;;;;23.00;20.67;;;;;11.57;75.19;102182.22;4979737;28;45328;-69
2021/10/09 03:05:12;;;;;;;;;25.00;19.67;;;;;11.59;74.84;102183.00;4975233;28;45631;-70
2021/10/09 03:07:39;;;;;;;;;24.00;22.00;;;;;11.60;74.98;102173.31;4980429;28;46158;-69
2021/10/09 03:10:06;;;;;;;;;25.33;20.00;;;;;11.60;74.78;102174.19;4979748;28;45437;-69
2021/10/09 03:12:33;;;;;;;;;25.00;21.67;;;;;11.58;75.61;102178.66;4964650;28;45265;-69
2021/10/09 03:14:59;;;;;;;;;23.00;18.67;;;;;11.56;75.44;102177.91;4989144;28;45432;-70
2021/10/09 03:17:25;;;;;;;;;26.33;23.00;;;;;11.54;75.03;102174.50;4976532;28;45482;-69
2021/10/09 03:19:50;;;;;;;;;24.00;22.00;;;;;11.53;75.24;102178.94;4994075;28;45362;-70
2021/10/09 03:22:15;;;;;;;;;22.67;22.67;;;;;11.51;75.01;102177.31;4992585;28;45556;-69
2021/10/09 03:24:41;;;;;;;;;25.67;21.67;;;;;11.51;75.31;102186.06;4983834;28;45488;-70
2021/10/09 03:27:06;;;;;;;;;21.67;20.67;;;;;11.50;74.90;102179.09;4979157;28;45546;-70
2021/10/09 03:29:32;;;;;;;;;21.33;20.67;;;;;11.52;75.22;102181.63;4977346;28;45459;-68
2021/10/09 03:31:57;;;;;;;;;25.33;20.00;;;;;11.52;74.79;102192.16;4977188;28;45902;-69
2021/10/09 03:34:22;;;;;;;;;19.00;19.00;;;;;11.52;74.70;102179.88;4979522;28;45581;-70
2021/10/09 03:36:48;;;;;;;;;27.00;18.00;;;;;11.52;75.14;102184.25;4978998;28;45962;-69
2021/10/09 03:39:17;;;;;;;;;23.00;21.00;;;;;11.51;75.17;102187.84;4961359;28;45467;-70
2021/10/09 03:41:47;;;;;;;;;23.33;21.33;;;;;11.47;75.03;102181.03;4978632;28;45231;-69
2021/10/09 03:44:13;;;;;;;;;25.33;22.33;;;;;11.41;75.14;102181.38;4959509;28;45421;-70
2021/10/09 03:46:43;;;;;;;;;27.67;26.00;;;;;11.37;75.17;102176.28;4979552;28;47241;-69
2021/10/09 03:54:17;;;;;;;;;24.33;23.00;;;;;11.23;76.00;102170.91;4981432;28;45484;-70
2021/10/09 03:56:45;;;;;;;;;28.67;24.67;;;;;11.18;75.76;102172.94;4975507;28;45321;-68
2021/10/09 03:59:12;;;;;;;;;22.33;19.67;;;;;11.16;75.82;102174.81;4974996;28;45557;-69
2021/10/09 04:01:37;;;;;;;;;25.67;21.33;;;;;11.14;75.99;102179.31;4975030;28;45430;-70
2021/10/09 04:04:03;;;;;;;;;31.67;26.00;;;;;11.12;76.29;102178.53;4981410;28;45492;-69
2021/10/09 04:06:28;;;;;;;;;29.67;23.67;;;;;11.07;75.99;102171.75;4984449;28;46246;-70
2021/10/09 04:08:53;;;;;;;;;31.67;27.67;;;;;11.04;76.00;102168.41;4985943;28;45530;-70
2021/10/09 04:11:19;;;;;;;;;32.00;27.00;;;;;11.02;76.63;102176.38;4979464;28;45449;-69
2021/10/09 04:13:44;;;;;;;;;26.67;23.00;;;;;10.99;76.37;102166.03;4982638;28;45399;-69
2021/10/09 04:16:10;;;;;;;;;28.67;25.00;;;;;11.01;76.16;102176.47;4982256;28;46276;-69
2021/10/09 04:18:35;;;;;;;;;26.67;26.33;;;;;11.00;76.43;102178.28;4982524;28;45452;-70
2021/10/09 04:21:01;;;;;;;;;33.67;29.33;;;;;11.00;76.60;102186.16;4983495;28;45428;-70
2021/10/09 04:23:26;;;;;;;;;37.00;27.33;;;;;10.97;76.63;102178.41;4980727;28;45434;-70
2021/10/09 04:25:51;;;;;;;;;28.33;24.33;;;;;10.95;76.56;102182.91;4994269;28;46343;-70
2021/10/09 04:28:17;;;;;;;;;25.00;24.00;;;;;10.89;76.38;102167.47;4982708;28;45472;-70
2021/10/09 04:30:42;;;;;;;;;35.33;32.00;;;;;10.93;76.39;102171.63;4981853;28;45433;-70
2021/10/09 04:33:07;;;;;;;;;23.00;21.33;;;;;10.94;76.87;102170.69;4982193;28;45271;-69
2021/10/09 04:35:33;;;;;;;;;32.33;27.00;;;;;10.93;76.79;102173.41;4980013;28;47060;-69
2021/10/09 04:38:04;;;;;;;;;27.67;25.00;;;;;10.89;77.02;102168.31;4979312;28;45310;-70
2021/10/09 04:40:30;;;;;;;;;34.00;29.00;;;;;10.87;76.71;102175.44;4981159;28;45506;-70
2021/10/09 04:42:55;;;;;;;;;28.33;23.33;;;;;10.87;76.59;102179.81;4981575;28;45527;-70
2021/10/09 04:45:21;;;;;;;;;25.67;23.67;;;;;10.88;76.91;102171.00;4981479;28;46982;-69
2021/10/09 04:47:46;;;;;;;;;29.33;27.67;;;;;10.89;76.80;102173.56;4964041;28;45848;-69
2021/10/09 04:50:12;;;;;;;;;28.33;24.67;;;;;10.89;76.52;102170.09;4977705;28;45362;-70
2021/10/09 04:52:37;;;;;;;;;30.33;25.33;;;;;10.88;76.84;102160.50;4969428;28;45264;-70
2021/10/09 04:55:03;;;;;;;;;26.00;24.00;;;;;10.89;76.36;102177.97;4980703;28;46170;-69
2021/10/09 04:57:28;;;;;;;;;26.33;22.00;;;;;10.88;76.42;102171.88;4981500;28;45395;-69
2021/10/09 04:59:53;;;;;;;;;30.67;27.67;;;;;10.85;76.44;102164.13;4981453;28;45532;-68
2021/10/09 05:02:19;;;;;;;;;24.33;22.00;;;;;10.84;76.48;102166.84;4965943;28;45376;-70
2021/10/09 05:04:44;;;;;;;;;31.67;27.00;;;;;10.81;77.10;102169.66;4979947;28;46238;-71
2021/10/09 05:07:09;;;;;;;;;23.33;23.33;;;;;10.77;77.14;102160.19;4981541;28;45509;-69
2021/10/09 05:09:35;;;;;;;;;34.00;29.33;;;;;10.78;77.15;102159.28;4983674;28;45453;-70
2021/10/09 05:12:00;;;;;;;;;30.67;25.00;;;;;10.76;76.95;102155.91;4990974;28;45452;-69
2021/10/09 05:14:25;;;;;;;;;28.00;24.00;;;;;10.72;77.05;102161.28;4976857;28;46196;-69
2021/10/09 05:16:51;;;;;;;;;24.33;24.00;;;;;10.70;77.11;102157.91;4963918;28;45827;-69
2021/10/09 05:19:16;;;;;;;;;34.00;28.00;;;;;10.70;77.36;102162.31;4985935;28;45483;-69
2021/10/09 05:21:42;;;;;;;;;31.67;27.00;;;;;10.69;77.08;102161.47;4984133;28;45538;-70
2021/10/09 05:24:07;;;;;;;;;25.33;24.33;;;;;10.65;77.45;102159.94;4978825;28;46301;-70
2021/10/09 05:26:36;;;;;;;;;31.00;26.33;;;;;10.66;76.99;102160.78;4980151;28;45582;-69
2021/10/09 05:29:01;;;;;;;;;35.33;30.67;;;;;10.64;77.60;102158.22;4977944;28;45616;-69
2021/10/09 05:31:29;;;;;;;;;31.00;27.00;;;;;10.60;77.53;102159.31;4982067;28;45378;-68
2021/10/09 05:33:55;;;;;;;;;30.67;27.00;;;;;10.58;77.74;102163.78;4980974;28;46098;-70
2021/10/09 05:36:22;;;;;;;;;30.00;28.33;;;;;10.53;77.83;102165.81;4981178;28;45552;-69
2021/10/09 05:38:47;;;;;;;;;36.33;33.00;;;;;10.50;78.09;102165.97;4992096;28;45292;-68
2021/10/09 05:41:13;;;;;;;;;33.00;28.33;;;;;10.48;77.55;102167.81;4960455;28;45364;-68
2021/10/09 05:43:39;;;;;;;;;34.33;29.33;;;;;10.45;77.38;102173.25;4981119;28;45361;-69
2021/10/09 05:46:04;;;;;;;;;31.00;29.67;;;;;10.44;77.69;102171.53;4963309;28;45303;-69
2021/10/09 05:48:33;;;;;;;;;28.00;24.67;;;;;10.43;77.81;102167.19;4963266;28;45469;-71
2021/10/09 05:51:08;;;;;;;;;36.33;29.33;;;;;10.42;77.64;102169.00;4980625;28;45555;-69
2021/10/09 07:00:17;;;;;;;;;40.67;35.00;;;;;10.62;77.19;102244.16;4913733;28;45514;-69
2021/10/09 07:02:42;;;;;;;;;35.67;32.33;;;;;10.65;77.10;102244.03;4918695;28;45615;-69
2021/10/09 07:05:09;;;;;;;;;44.33;35.33;;;;;10.66;77.08;102248.34;4915931;28;45548;-71
2021/10/09 07:07:40;;;;;;;;;34.33;28.67;;;;;10.71;76.78;102254.22;4919890;28;45574;-69
2021/10/09 07:10:06;;;;;;;;;34.00;29.33;;;;;10.77;76.94;102254.81;4921889;28;45300;-71
2021/10/09 07:12:32;;;;;;;;;39.33;33.00;;;;;10.82;76.64;102251.06;4931964;28;45363;-70
2021/10/09 07:14:57;;;;;;;;;27.67;23.00;;;;;10.87;76.20;102253.44;4958432;28;45617;-71
2021/10/09 07:17:22;;;;;;;;;37.33;33.00;;;;;10.90;76.63;102253.28;4956794;28;45475;-70
2021/10/09 07:19:48;;;;;;;;;35.67;31.33;;;;;10.92;76.58;102261.09;4959721;28;45348;-70
2021/10/09 07:22:13;;;;;;;;;43.00;33.33;;;;;10.93;76.45;102252.28;4960658;28;45366;-70
2021/10/09 07:24:38;;;;;;;;;39.33;33.67;;;;;10.95;75.87;102259.16;4958111;28;45509;-69
2021/10/09 07:27:04;;;;;;;;;38.00;32.00;;;;;10.97;76.33;102257.28;4959303;28;46131;-70
2021/10/09 07:29:29;;;;;;;;;46.00;34.00;;;;;10.99;76.23;102262.47;4955926;28;45437;-70
2021/10/09 07:31:55;;;;;;;;;35.33;28.00;;;;;11.03;75.88;102262.25;4953378;28;45240;-70
2021/10/09 07:34:20;;;;;;;;;35.33;31.33;;;;;11.06;75.60;102263.88;4962264;28;45449;-70
2021/10/09 07:36:46;;;;;;;;;40.00;33.00;;;;;11.12;75.86;102270.56;4960003;28;46094;-70
2021/10/09 07:39:12;;;;;;;;;39.00;34.67;;;;;11.15;75.75;102280.94;4964610;28;45472;-70
2021/10/09 07:41:37;;;;;;;;;35.67;31.00;;;;;11.16;75.45;102261.63;4973753;28;45421;-70
2021/10/09 07:44:03;;;;;;;;;45.00;32.33;;;;;11.18;75.58;102272.88;4983217;28;45462;-69
2021/10/09 07:46:29;;;;;;;;;41.00;33.33;;;;;11.23;75.67;102278.75;4968724;28;46199;-69
2021/10/09 07:48:55;;;;;;;;;37.67;32.00;;;;;11.29;75.09;102280.25;4984349;28;45441;-70
2021/10/09 07:51:21;;;;;;;;;43.00;34.50;;;;;11.31;75.60;102279.22;4981143;28;45608;-71
2021/10/09 07:53:46;;;;;;;;;38.00;33.00;;;;;11.37;75.00;102275.41;4979148;28;45574;-70
2021/10/09 07:56:12;;;;;;;;;45.33;35.33;;;;;11.42;74.92;102281.28;4980374;28;47021;-70
2021/10/09 07:58:37;;;;;;;;;41.67;33.67;;;;;11.49;74.70;102281.81;4986059;28;45295;-69
2021/10/09 08:01:03;;;;;;;;;41.25;34.50;;;;;11.56;74.96;102286.66;4990522;28;45559;-69
2021/10/09 08:03:29;;;;;;;;;42.33;35.00;;;;;11.59;74.63;102280.38;4970599;28;45565;-70
2021/10/09 08:05:55;;;;;;;;;37.00;32.00;;;;;11.65;73.94;102289.72;4981912;28;45940;-72
2021/10/09 08:08:21;;;;;;;;;44.25;35.25;;;;;11.68;74.21;102286.94;4974584;28;45343;-70
2021/10/09 08:10:47;;;;;;;;;41.33;34.33;;;;;11.71;74.24;102295.53;4985263;28;45449;-69
2021/10/09 08:13:15;;;;;;;;;35.50;32.75;;;;;11.73;73.67;102293.63;4995743;28;45551;-71
2021/10/09 08:15:44;;;;;;;;;42.33;34.33;;;;;11.77;73.96;102294.34;4989222;28;46415;-70
2021/10/09 08:18:10;;;;;;;;;28.33;24.00;;;;;11.79;73.82;102294.25;4985503;28;45539;-70
2021/10/09 08:20:39;;;;;;;;;46.33;37.00;;;;;11.86;73.61;102295.63;4981714;28;45421;-71
2021/10/09 08:23:08;;;;;;;;;32.00;28.00;;;;;11.89;73.52;102295.44;4998724;28;45414;-70
2021/10/09 08:38:52;;;;;;;;;50.00;37.33;;;;;12.30;72.17;102289.69;4969763;28;45310;-71
2021/10/09 08:41:18;;;;;;;;;82.50;64.00;;;;;12.44;72.66;102290.69;4962983;28;45751;-72
2021/10/09 08:43:46;;;;;;;;;32.00;26.67;;;;;12.52;71.58;102293.75;4982693;28;45516;-70
2021/10/09 08:46:11;;;;;;;;;50.67;36.33;;;;;12.53;71.30;102287.50;4984239;28;47382;-70
2021/10/09 08:48:46;;;;;;;;;79.75;62.00;;;;;12.62;72.01;102286.97;4984254;28;45341;-69
2021/10/09 08:51:12;;;;;;;;;43.00;35.00;;;;;12.68;71.40;102289.25;4986377;28;45619;-71
2021/10/09 08:53:40;;;;;;;;;46.67;34.67;;;;;12.73;71.20;102291.63;4991207;28;45480;-72
2021/10/09 08:56:06;;;;;;;;;36.33;31.67;;;;;12.75;71.08;102299.47;4992874;28;46375;-70
2021/10/09 08:58:39;;;;;;;;;36.33;32.00;;;;;12.80;70.92;102297.41;4992926;28;45466;-71
2021/10/09 09:01:11;;;;;;;;;38.67;34.33;;;;;12.85;71.62;102292.72;4978896;28;45463;-70
2021/10/09 09:30:34;;;;;;;;;34.67;30.67;;;;;13.45;67.38;102281.19;4973222;28;45604;-71
2021/10/09 09:36:47;;;;;;;;;39.00;33.33;;;;;13.61;67.46;102274.97;4962206;28;45429;-73
2021/10/09 09:39:13;;;;;;;;;35.67;32.67;;;;;13.73;66.99;102278.66;4980900;28;46494;-74
2021/10/09 09:41:47;;;;;;;;;30.67;28.00;;;;;13.80;66.60;102277.31;4980173;28;45311;-74
2021/10/09 09:44:15;;;;;;;;;36.67;31.33;;;;;13.85;66.35;102276.06;4994362;28;45298;-73
2021/10/09 09:46:41;;;;;;;;;31.33;28.33;;;;;13.92;66.42;102271.25;4997016;28;45554;-74
2021/10/09 09:49:07;;;;;;;;;32.33;27.00;;;;;14.01;66.42;102267.16;4980907;28;46140;-74
2021/10/09 09:51:37;;;;;;;;;33.33;30.67;;;;;14.09;65.87;102269.31;4980741;28;45699;-74
2021/10/09 09:54:04;;;;;;;;;40.67;31.00;;;;;14.14;64.86;102264.56;4980642;28;45573;-73
2021/10/09 09:56:30;;;;;;;;;34.33;30.33;;;;;14.21;65.02;102265.03;4979917;28;45476;-74
2021/10/09 09:58:59;;;;;;;;;30.67;27.67;;;;;14.29;65.28;102266.22;4978045;28;46176;-74
2021/10/09 10:01:31;;;;;;;;;36.67;31.67;;;;;14.36;64.49;102262.22;4983405;28;45350;-74
2021/10/09 10:03:59;;;;;;;;;28.33;27.00;;;;;14.42;64.12;102252.19;4981261;28;45505;-75
2021/10/09 10:06:27;;;;;;;;;32.33;28.00;;;;;14.48;63.74;102262.38;4982815;28;45346;-73
2021/10/09 10:08:55;;;;;;;;;36.33;32.00;;;;;14.55;63.59;102258.34;4984597;28;47181;-72
2021/10/09 10:11:20;;;;;;;;;37.33;30.00;;;;;14.62;63.79;102251.72;4981323;28;45434;-74
2021/10/09 10:13:47;;;;;;;;;38.67;30.67;;;;;14.69;63.63;102260.13;4968586;28;45411;-74
2021/10/09 10:16:13;;;;;;;;;34.33;31.67;;;;;14.75;63.33;102261.50;4985993;28;45593;-73
2021/10/09 10:18:45;;;;;;;;;29.33;28.67;;;;;14.82;63.15;102249.56;4983823;28;46786;-75
2021/10/09 10:21:12;;;;;;;;;31.67;23.67;;;;;14.88;63.51;102249.16;4986013;28;45385;-75
2021/10/09 10:23:40;;;;;;;;;27.33;26.33;;;;;14.97;63.44;102248.50;4985102;28;45407;-74
2021/10/09 10:26:21;;;;;;;;;28.33;27.00;;;;;15.07;62.64;102255.81;4981825;28;45319;-74
2021/10/09 10:28:52;;;;;;;;;25.33;23.33;;;;;15.11;61.63;102257.28;4995187;28;46114;-73
2021/10/09 10:31:17;;;;;;;;;30.33;25.67;;;;;15.11;61.11;102249.34;4987733;28;44843;-73
2021/10/09 10:33:44;;;;;;;;;23.33;21.33;;;;;15.16;61.56;102249.88;4972002;28;46125;-74
2021/10/09 10:36:12;;;;;;;;;27.00;25.00;;;;;15.19;60.52;102236.41;4995507;28;45448;-73
2021/10/09 10:38:48;;;;;;;;;34.67;23.33;;;;;15.25;60.42;102249.22;4986388;28;45662;-75
2021/10/09 10:41:20;;;;;;;;;26.33;24.67;;;;;15.27;61.09;102243.81;4982591;28;45359;-72
2021/10/09 10:43:56;;;;;;;;;24.00;21.33;;;;;15.33;60.86;102248.69;4989071;28;45402;-75
2021/10/09 10:48:58;;;;;;;;;24.00;22.33;;;;;15.40;58.77;102246.44;4979961;28;45438;-75
2021/10/09 10:57:01;;;;;;;;;31.00;26.00;;;;;15.43;60.81;102239.13;4980201;28;45486;-72
2021/10/09 10:59:37;;;;;;;;;25.33;23.00;;;;;15.51;59.68;102235.94;4977046;28;45430;-75
2021/10/09 11:02:23;;;;;;;;;29.00;23.67;;;;;15.58;58.68;102239.00;4977429;28;45218;-75
2021/10/09 11:04:50;;;;;;;;;25.67;23.67;;;;;15.60;58.30;102235.28;4975288;28;45444;-74
2021/10/09 11:07:16;;;;;;;;;26.67;22.67;;;;;15.65;56.91;102245.56;4979630;28;45457;-74
2021/10/09 11:09:43;;;;;;;;;24.33;22.33;;;;;15.64;57.76;102236.75;4979625;28;45430;-73
2021/10/09 11:12:25;;;;;;;;;21.33;19.67;;;;;15.68;58.62;102235.59;4978724;28;45397;-72
2021/10/09 11:15:00;;;;;;;;;18.00;16.67;;;;;15.75;57.35;102235.13;4979481;28;45454;-74
2021/10/09 11:17:31;;;;;;;;;18.00;17.00;;;;;15.76;57.21;102237.69;4976051;28;45528;-73
2021/10/09 11:19:56;;;;;;;;;24.67;22.00;;;;;15.79;56.53;102236.63;4977221;28;46430;-73
2021/10/09 11:22:22;;;;;;;;;26.00;21.33;;;;;15.81;56.97;102229.44;4979861;28;45270;-73
2021/10/09 11:24:50;;;;;;;;;20.00;19.00;;;;;15.84;57.13;102231.88;4979694;28;46668;-74
2021/10/09 11:27:17;;;;;;;;;24.67;22.00;;;;;15.89;57.33;102237.66;4979020;28;45303;-74
2021/10/09 11:30:11;;;;;;;;;24.00;21.33;;;;;15.93;56.19;102236.50;4990771;28;46346;-74
2021/10/09 11:32:38;;;;;;;;;32.33;25.67;;;;;15.98;56.92;102238.78;4964868;28;45456;-75
2021/10/09 11:35:05;;;;;;;;;25.33;20.67;;;;;16.00;56.79;102232.41;4977003;28;45352;-75
2021/10/09 11:37:33;;;;;;;;;23.33;21.33;;;;;16.05;56.90;102240.03;4980794;28;45303;-73
2021/10/09 11:40:01;;;;;;;;;26.33;21.67;;;;;16.09;56.64;102230.91;4979743;28;46346;-73
2021/10/09 11:42:42;;;;;;;;;24.67;21.00;;;;;16.12;56.47;102229.84;4979357;28;45345;-74
2021/10/09 11:45:39;;;;;;;;;19.00;15.67;;;;;16.20;56.98;102229.25;4982377;28;45342;-74
2021/10/09 11:53:51;;;;;;;;;21.67;21.67;;;;;16.35;55.51;102225.47;4965624;28;45415;-73
2021/10/09 11:56:16;;;;;;;;;20.33;20.00;;;;;16.38;55.54;102227.03;4976464;28;45636;-76
2021/10/09 11:58:52;;;;;;;;;25.67;20.00;;;;;16.40;55.14;102222.44;4984052;28;45347;-74
2021/10/09 12:01:24;;;;;;;;;24.67;19.67;;;;;16.40;54.53;102219.81;4998327;28;45623;-78
2021/10/09 12:03:49;;;;;;;;;26.33;23.67;;;;;16.39;55.16;102226.09;4994072;28;45311;-76
2021/10/09 12:06:15;;;;;;;;;17.33;17.00;;;;;16.40;55.61;102227.75;4975393;28;45830;-76
2021/10/09 12:08:54;;;;;;;;;24.00;20.00;;;;;16.40;55.55;102218.00;4992796;28;45590;-74
2021/10/09 12:11:19;;;;;;;;;23.33;22.00;;;;;16.45;55.37;102215.84;4980793;28;46296;-74
2021/10/09 12:13:57;;;;;;;;;24.00;22.33;;;;;16.51;55.48;102209.22;4982458;28;45351;-74
2021/10/09 12:16:28;;;;;;;;;17.00;15.33;;;;;16.56;54.89;102214.19;4985848;28;45472;-73
2021/10/09 12:19:00;;;;;;;;;24.67;21.67;;;;;16.59;54.81;102216.59;4994506;28;45338;-77
2021/10/09 12:21:29;;;;;;;;;20.33;16.67;;;;;16.62;54.24;102214.56;4996347;28;45368;-76
2021/10/09 12:23:55;;;;;;;;;20.33;16.00;;;;;16.62;53.85;102209.25;4996562;28;45505;-76
2021/10/09 12:26:22;;;;;;;;;20.67;20.67;;;;;16.66;53.46;102212.53;4988156;28;45392;-75
2021/10/09 12:29:08;;;;;;;;;19.67;16.67;;;;;16.67;52.88;102215.06;5001224;28;45362;-75
2021/10/09 12:31:36;;;;;;;;;14.67;14.00;;;;;16.69;52.51;102208.81;4982455;28;45823;-73
2021/10/09 12:34:03;;;;;;;;;15.00;14.00;;;;;16.69;53.04;102199.03;4982848;28;45461;-74
2021/10/09 12:36:32;;;;;;;;;20.00;16.33;;;;;16.73;53.67;102199.63;4981729;28;45722;-74
2021/10/09 12:39:27;;;;;;;;;21.67;16.33;;;;;16.79;52.76;102193.88;4982215;28;45492;-75
2021/10/09 12:41:54;;;;;;;;;19.00;17.00;;;;;16.83;53.04;102196.16;4982086;28;47105;-75
2021/10/09 12:44:20;;;;;;;;;14.67;14.00;;;;;16.84;52.69;102194.34;4979174;28;45303;-74
2021/10/09 12:46:46;;;;;;;;;18.00;15.67;;;;;16.89;52.63;102186.88;4966330;28;45466;-73
2021/10/09 12:49:11;;;;;;;;;18.00;17.00;;;;;16.89;52.80;102189.53;4983955;28;45522;-75
2021/10/09 12:51:37;;;;;;;;;21.00;19.33;;;;;16.94;52.55;102190.06;4983736;28;45481;-75
2021/10/09 12:54:05;;;;;;;;;21.00;18.33;;;;;16.95;51.86;102181.09;4984347;28;45326;-69
2021/10/09 12:56:31;;;;;;;;;22.00;18.33;;;;;16.95;51.99;102181.09;4981411;28;45386;-76
2021/10/09 12:58:56;;;;;;;;;16.67;14.67;;;;;16.95;51.47;102191.72;4988777;28;45466;-68
2021/10/09 13:01:21;;;;;;;;;20.33;18.33;;;;;16.93;51.24;102177.75;4981189;28;47277;-70
2021/10/09 13:03:47;;;;;;;;;25.00;19.33;;;;;16.96;51.55;102182.78;4981195;28;45479;-70
2021/10/09 13:06:12;;;;;;;;;18.00;17.00;;;;;16.97;52.46;102179.19;4965992;28;45352;-70
2021/10/09 13:08:38;;;;;;;;;20.33;19.00;;;;;17.02;51.30;102177.97;4992752;28;45448;-72
2021/10/09 13:11:04;;;;;;;;;22.00;18.67;;;;;17.04;51.56;102176.88;4978376;28;46989;-71
2021/10/09 13:13:29;;;;;;;;;23.33;17.67;;;;;17.07;51.96;102168.66;4994928;28;45306;-72
2021/10/09 13:15:55;;;;;;;;;18.33;15.33;;;;;17.07;52.15;102167.84;4966195;28;45368;-70
2021/10/09 13:18:20;;;;;;;;;20.33;17.33;;;;;17.09;52.35;102165.91;4963431;28;45421;-72
2021/10/09 13:20:45;;;;;;;;;20.33;17.67;;;;;17.10;51.45;102170.22;4980590;28;46134;-71
2021/10/09 13:23:11;;;;;;;;;23.00;20.33;;;;;17.11;51.37;102161.31;4993448;28;45305;-73
2021/10/09 13:25:36;;;;;;;;;16.00;13.33;;;;;17.12;52.04;102171.78;4975315;28;45436;-73